createdAt,value
2022-09-28T00:01:22.018Z,7.70
2022-09-28T00:03:51.093Z,7.70
2022-09-28T00:06:21.012Z,7.70
2022-09-28T00:08:50.256Z,7.80
2022-09-28T00:11:19.276Z,7.80
2022-09-28T00:13:53.485Z,7.80
2022-09-28T00:16:24.579Z,7.90
2022-09-28T00:18:52.703Z,8.00
2022-09-28T00:21:23.028Z,8.00
2022-09-28T00:24:15.128Z,8.00
2022-09-28T00:26:47.907Z,8.00
2022-09-28T00:29:22.905Z,8.00
2022-09-28T00:31:53.688Z,8.00
2022-09-28T00:34:21.157Z,8.00
2022-09-28T00:36:49.225Z,8.00
2022-09-28T00:39:17.840Z,8.10
2022-09-28T00:41:46.440Z,8.00
2022-09-28T00:44:25.868Z,8.00
2022-09-28T00:47:04.911Z,8.00
2022-09-28T00:49:53.200Z,8.00
2022-09-28T00:52:27.108Z,8.10
2022-09-28T00:54:57.530Z,8.10
2022-09-28T00:57:25.548Z,8.20
2022-09-28T00:59:52.828Z,8.10
2022-09-28T01:02:21.242Z,8.10
2022-09-28T01:04:49.772Z,8.10
2022-09-28T01:07:18.734Z,8.10
2022-09-28T01:09:46.407Z,8.10
2022-09-28T01:12:13.805Z,8.10
2022-09-28T01:14:42.441Z,8.10
2022-09-28T01:17:17.259Z,8.10
2022-09-28T01:20:26.889Z,8.10
2022-09-28T01:23:19.233Z,8.20
2022-09-28T01:25:52.363Z,8.30
2022-09-28T01:28:23.829Z,8.30
2022-09-28T01:30:57.423Z,8.20
2022-09-28T01:33:29.208Z,8.20
2022-09-28T01:36:15.535Z,8.20
2022-09-28T01:39:15.498Z,8.20
2022-09-28T01:41:46.274Z,8.20
2022-09-28T01:44:17.412Z,8.20
2022-09-28T01:46:49.963Z,8.10
2022-09-28T01:49:17.360Z,8.20
2022-09-28T01:52:21.355Z,8.10
2022-09-28T01:55:06.851Z,8.10
2022-09-28T01:57:59.191Z,8.10
2022-09-28T02:00:27.940Z,8.10
2022-09-28T02:03:18.431Z,8.20
2022-09-28T02:05:58.810Z,8.10
2022-09-28T02:08:36.586Z,8.10
2022-09-28T02:11:15.148Z,8.10
2022-09-28T02:14:21.817Z,8.10
2022-09-28T02:16:54.397Z,8.10
2022-09-28T02:19:28.650Z,8.10
2022-09-28T02:22:31.845Z,8.10
2022-09-28T02:25:02.133Z,8.10
2022-09-28T02:28:00.963Z,8.10
2022-09-28T02:30:33.824Z,8.10
2022-09-28T02:33:09.105Z,8.10
2022-09-28T02:35:37.769Z,8.10
2022-09-28T02:38:05.156Z,8.10
2022-09-28T02:40:34.344Z,8.10
2022-09-28T02:43:24.812Z,8.10
2022-09-28T02:46:03.940Z,8.10
2022-09-28T02:49:05.000Z,8.10
2022-09-28T02:52:02.690Z,8.20
2022-09-28T02:54:42.017Z,8.20
2022-09-28T02:57:42.789Z,8.20
2022-09-28T03:00:22.890Z,8.20
2022-09-28T03:03:21.541Z,8.20
2022-09-28T03:06:01.313Z,8.20
2022-09-28T03:08:38.077Z,8.20
2022-09-28T03:11:10.477Z,8.10
2022-09-28T03:13:38.381Z,8.10
2022-09-28T03:16:14.667Z,8.10
2022-09-28T03:18:45.019Z,8.10
2022-09-28T03:21:13.760Z,8.10
2022-09-28T03:23:41.918Z,8.10
2022-09-28T03:26:11.133Z,8.10
2022-09-28T03:28:38.740Z,8.10
2022-09-28T03:31:07.879Z,8.10
2022-09-28T03:33:35.583Z,8.10
2022-09-28T03:36:02.892Z,8.10
2022-09-28T03:38:30.687Z,8.10
2022-09-28T03:40:59.970Z,8.10
2022-09-28T03:43:31.325Z,8.10
2022-09-28T03:46:02.024Z,8.10
2022-09-28T03:48:34.142Z,8.20
2022-09-28T03:51:09.267Z,8.20
2022-09-28T03:53:37.052Z,8.20
2022-09-28T03:56:06.412Z,8.30
2022-09-28T03:58:34.415Z,8.30
2022-09-28T04:01:07.244Z,8.30
2022-09-28T04:03:35.065Z,8.30
2022-09-28T04:06:02.307Z,8.30
2022-09-28T04:08:29.675Z,8.30
2022-09-28T04:10:58.492Z,8.30
2022-09-28T04:13:26.483Z,8.30
2022-09-28T04:15:59.384Z,8.30
2022-09-28T04:18:29.021Z,8.30
2022-09-28T04:21:13.808Z,8.30
2022-09-28T04:23:45.240Z,8.30
2022-09-28T04:26:20.627Z,8.40
2022-09-28T04:29:07.353Z,8.30
2022-09-28T04:31:53.043Z,8.40
2022-09-28T04:34:23.520Z,8.30
2022-09-28T04:36:51.331Z,8.30
2022-09-28T04:39:19.642Z,8.30
2022-09-28T04:41:50.110Z,8.40
2022-09-28T04:44:17.514Z,8.40
2022-09-28T04:46:46.736Z,8.40
2022-09-28T04:49:29.583Z,8.40
2022-09-28T04:51:59.053Z,8.50
2022-09-28T04:54:26.455Z,8.50
2022-09-28T04:56:56.098Z,8.50
2022-09-28T04:59:23.495Z,8.50
2022-09-28T05:01:50.773Z,8.60
2022-09-28T05:04:38.351Z,8.60
2022-09-28T05:07:24.771Z,8.60
2022-09-28T05:09:52.106Z,8.60
2022-09-28T05:12:19.469Z,8.60
2022-09-28T05:14:48.079Z,8.60
2022-09-28T05:17:15.879Z,8.70
2022-09-28T05:19:59.459Z,8.70
2022-09-28T05:22:26.696Z,8.70
2022-09-28T05:24:55.435Z,8.70
2022-09-28T05:27:31.308Z,8.70
2022-09-28T05:30:06.033Z,8.80
2022-09-28T05:33:00.197Z,8.80
2022-09-28T05:35:35.125Z,8.80
2022-09-28T05:38:05.734Z,8.80
2022-09-28T05:40:33.851Z,8.90
2022-09-28T05:43:04.744Z,8.90
2022-09-28T05:45:33.113Z,8.90
2022-09-28T05:48:00.843Z,8.90
2022-09-28T05:50:28.225Z,8.90
2022-09-28T05:53:04.797Z,8.90
2022-09-28T05:55:33.240Z,9.00
2022-09-28T05:58:02.054Z,9.00
2022-09-28T06:00:32.223Z,8.90
2022-09-28T06:03:09.461Z,8.90
2022-09-28T06:05:39.502Z,8.90
2022-09-28T06:08:10.447Z,8.90
2022-09-28T06:10:39.777Z,9.00
2022-09-28T06:13:07.690Z,9.00
2022-09-28T06:15:35.972Z,9.00
2022-09-28T06:18:10.245Z,9.10
2022-09-28T06:20:43.033Z,9.20
2022-09-28T06:23:15.282Z,9.20
2022-09-28T06:25:43.321Z,9.20
2022-09-28T06:28:15.301Z,9.30
2022-09-28T06:30:43.996Z,9.30
2022-09-28T06:33:16.500Z,9.30
2022-09-28T06:35:44.298Z,9.30
2022-09-28T06:38:11.985Z,9.40
2022-09-28T06:40:39.720Z,9.40
2022-09-28T06:43:14.853Z,9.50
2022-09-28T06:46:02.107Z,9.50
2022-09-28T06:49:03.475Z,9.50
2022-09-28T06:51:53.675Z,9.50
2022-09-28T06:54:47.083Z,9.50
2022-09-28T06:57:30.105Z,9.60
2022-09-28T06:59:57.318Z,9.60
2022-09-28T07:02:24.603Z,9.60
2022-09-28T07:05:12.549Z,9.60
2022-09-28T07:08:00.071Z,9.60
2022-09-28T07:10:59.722Z,9.60
2022-09-28T07:13:50.343Z,9.60
2022-09-28T07:16:25.673Z,9.60
2022-09-28T07:18:54.683Z,9.60
2022-09-28T07:21:28.645Z,9.60
2022-09-28T07:24:00.106Z,9.50
2022-09-28T07:26:33.463Z,9.50
2022-09-28T07:29:00.713Z,9.50
2022-09-28T07:31:39.625Z,9.70
2022-09-28T07:34:41.320Z,9.70
2022-09-28T07:37:40.974Z,9.70
2022-09-28T07:40:28.330Z,9.70
2022-09-28T07:42:56.472Z,9.80
2022-09-28T07:45:26.912Z,9.80
2022-09-28T07:47:57.337Z,9.70
2022-09-28T07:50:27.721Z,9.70
2022-09-28T07:53:04.090Z,9.70
2022-09-28T07:55:55.832Z,9.70
2022-09-28T07:58:37.772Z,9.70
2022-09-28T08:01:40.186Z,9.60
2022-09-28T08:04:10.319Z,9.40
2022-09-28T08:06:40.635Z,9.20
2022-09-28T08:09:10.505Z,9.00
2022-09-28T08:11:59.761Z,8.90
2022-09-28T08:14:47.285Z,8.90
2022-09-28T08:17:47.612Z,9.00
2022-09-28T08:20:34.136Z,8.90
2022-09-28T08:23:06.128Z,9.00
2022-09-28T08:25:36.873Z,9.10
2022-09-28T08:28:09.150Z,9.20
2022-09-28T08:30:45.439Z,9.20
2022-09-28T08:33:31.318Z,9.40
2022-09-28T08:36:17.089Z,9.50
2022-09-28T08:39:10.300Z,9.50
2022-09-28T08:42:27.671Z,9.70
2022-09-28T08:45:15.606Z,9.80
2022-09-28T08:48:26.681Z,10.00
2022-09-28T08:51:29.349Z,10.20
2022-09-28T08:54:30.638Z,10.30
2022-09-28T08:57:07.064Z,10.50
2022-09-28T08:59:51.648Z,10.40
2022-09-28T09:02:36.864Z,10.70
2022-09-28T09:05:17.238Z,10.90
2022-09-28T09:08:23.543Z,11.00
2022-09-28T09:10:56.185Z,10.80
2022-09-28T09:14:10.676Z,10.90
2022-09-28T09:16:42.286Z,10.80
2022-09-28T09:19:40.313Z,10.90
2022-09-28T09:22:47.107Z,10.60
2022-09-28T09:25:38.409Z,10.60
2022-09-28T09:28:15.471Z,10.70
2022-09-28T09:31:09.301Z,10.60
2022-09-28T09:34:13.977Z,10.80
2022-09-28T09:37:17.202Z,11.00
2022-09-28T09:40:47.203Z,11.10
2022-09-28T09:44:11.809Z,11.00
2022-09-28T09:47:06.271Z,11.10
2022-09-28T09:49:45.794Z,11.40
2022-09-28T09:52:22.877Z,11.70
2022-09-28T09:55:14.440Z,11.80
2022-09-28T09:57:54.769Z,11.90
2022-09-28T10:00:31.633Z,11.90
2022-09-28T10:03:28.192Z,11.90
2022-09-28T10:06:11.381Z,11.90
2022-09-28T10:08:46.039Z,12.20
2022-09-28T10:11:21.655Z,12.30
2022-09-28T10:13:54.155Z,12.40
2022-09-28T10:16:45.626Z,12.80
2022-09-28T10:19:27.547Z,13.10
2022-09-28T10:22:07.082Z,13.30
2022-09-28T10:24:45.283Z,12.80
2022-09-28T10:27:20.128Z,12.60
2022-09-28T10:29:57.725Z,12.60
2022-09-28T10:32:27.492Z,13.00
2022-09-28T10:35:12.073Z,13.30
2022-09-28T10:37:56.957Z,13.50
2022-09-28T10:40:56.059Z,13.60
2022-09-28T10:43:39.745Z,13.30
2022-09-28T10:46:21.532Z,13.30
2022-09-28T10:49:15.771Z,13.10
2022-09-28T10:51:50.282Z,12.70
2022-09-28T10:54:31.123Z,12.60
2022-09-28T10:57:00.919Z,12.20
2022-09-28T10:59:48.378Z,12.40
2022-09-28T11:02:41.199Z,12.50
2022-09-28T11:05:22.964Z,12.70
2022-09-28T11:07:55.510Z,12.90
2022-09-28T11:10:31.200Z,12.80
2022-09-28T11:13:09.646Z,13.00
2022-09-28T11:15:42.742Z,13.20
2022-09-28T11:18:25.425Z,13.30
2022-09-28T11:20:52.912Z,13.30
2022-09-28T11:23:26.678Z,13.60
2022-09-28T11:26:09.150Z,13.70
2022-09-28T11:28:38.358Z,13.70
2022-09-28T11:31:15.722Z,13.80
2022-09-28T11:34:13.194Z,14.20
2022-09-28T11:37:27.619Z,14.50
2022-09-28T11:40:21.539Z,14.20
2022-09-28T11:43:40.114Z,13.40
2022-09-28T11:46:21.445Z,13.00
2022-09-28T11:48:58.202Z,12.80
2022-09-28T11:51:30.646Z,12.80
2022-09-28T11:54:32.998Z,12.60
2022-09-28T11:57:04.814Z,12.30
2022-09-28T12:00:14.988Z,12.30
2022-09-28T12:02:54.313Z,12.40
2022-09-28T12:05:42.680Z,12.60
2022-09-28T12:08:40.325Z,13.20
2022-09-28T12:11:44.022Z,14.00
2022-09-28T12:14:32.732Z,14.00
2022-09-28T12:17:11.887Z,14.20
2022-09-28T12:19:49.456Z,14.60
2022-09-28T12:22:24.888Z,15.10
2022-09-28T12:24:55.607Z,15.10
2022-09-28T12:27:28.594Z,15.30
2022-09-28T12:30:16.021Z,15.60
2022-09-28T12:32:46.655Z,15.90
2022-09-28T12:35:19.891Z,16.20
2022-09-28T12:38:00.050Z,16.10
2022-09-28T12:41:05.597Z,15.20
2022-09-28T12:43:36.220Z,15.20
2022-09-28T12:46:22.165Z,15.70
2022-09-28T12:50:01.898Z,15.40
2022-09-28T12:52:37.866Z,15.40
2022-09-28T12:55:18.577Z,16.70
2022-09-28T12:58:07.669Z,17.30
2022-09-28T13:00:53.638Z,17.00
2022-09-28T13:03:32.919Z,16.00
2022-09-28T13:06:12.098Z,15.30
2022-09-28T13:08:51.112Z,15.00
2022-09-28T13:11:21.966Z,15.70
2022-09-28T13:14:11.186Z,16.60
2022-09-28T13:16:44.787Z,17.90
2022-09-28T13:19:21.291Z,18.60
2022-09-28T13:22:06.619Z,18.20
2022-09-28T13:24:38.785Z,17.70
2022-09-28T13:27:22.357Z,17.90
2022-09-28T13:29:51.319Z,17.70
2022-09-28T13:32:19.577Z,16.80
2022-09-28T13:34:49.297Z,16.60
2022-09-28T13:37:25.929Z,16.90
2022-09-28T13:39:55.237Z,18.00
2022-09-28T13:42:34.068Z,19.00
2022-09-28T13:45:22.342Z,19.60
2022-09-28T13:48:01.049Z,19.80
2022-09-28T13:50:37.342Z,20.00
2022-09-28T13:53:37.327Z,19.90
2022-09-28T13:56:27.682Z,18.90
2022-09-28T13:59:29.950Z,17.50
2022-09-28T14:02:06.792Z,16.70
2022-09-28T14:04:55.276Z,15.90
2022-09-28T14:07:25.563Z,15.60
2022-09-28T14:10:19.465Z,15.30
2022-09-28T14:12:51.540Z,14.70
2022-09-28T14:15:36.824Z,14.30
2022-09-28T14:18:29.076Z,14.20
2022-09-28T14:21:07.108Z,14.20
2022-09-28T14:23:59.068Z,15.00
2022-09-28T14:26:48.229Z,15.10
2022-09-28T14:29:29.879Z,15.00
2022-09-28T14:32:20.373Z,15.10
2022-09-28T14:34:55.991Z,15.20
2022-09-28T14:37:52.383Z,15.10
2022-09-28T14:40:48.817Z,15.40
2022-09-28T14:43:26.125Z,14.90
2022-09-28T14:46:11.365Z,14.20
2022-09-28T14:48:51.022Z,13.80
2022-09-28T14:51:27.454Z,13.60
2022-09-28T14:54:08.133Z,13.50
2022-09-28T14:56:53.697Z,13.30
2022-09-28T14:59:36.262Z,13.10
2022-09-28T15:02:13.619Z,12.90
2022-09-28T15:04:49.326Z,12.80
2022-09-28T15:07:40.756Z,12.70
2022-09-28T15:10:27.468Z,12.70
2022-09-28T15:12:57.258Z,13.20
2022-09-28T15:15:35.599Z,14.40
2022-09-28T15:18:28.013Z,14.70
2022-09-28T15:20:56.258Z,14.80
2022-09-28T15:23:39.312Z,14.60
2022-09-28T15:26:19.971Z,14.10
2022-09-28T15:28:47.230Z,13.80
2022-09-28T15:31:20.972Z,13.40
2022-09-28T15:34:07.193Z,13.30
2022-09-28T15:36:46.590Z,13.00
2022-09-28T15:39:31.829Z,12.80
2022-09-28T15:42:00.346Z,12.50
2022-09-28T15:44:35.382Z,12.50
2022-09-28T15:47:11.192Z,12.40
2022-09-28T15:49:41.393Z,12.30
2022-09-28T15:52:28.423Z,12.20
2022-09-28T15:54:56.449Z,12.10
2022-09-28T15:57:34.497Z,12.00
2022-09-28T16:00:02.132Z,12.00
2022-09-28T16:02:39.109Z,12.00
2022-09-28T16:05:35.865Z,12.00
2022-09-28T16:08:05.306Z,11.90
2022-09-28T16:10:35.263Z,11.80
2022-09-28T16:13:15.783Z,11.60
2022-09-28T16:15:43.391Z,11.40
2022-09-28T16:18:13.639Z,11.60
2022-09-28T16:20:42.694Z,11.60
2022-09-28T16:23:23.322Z,11.60
2022-09-28T16:26:02.857Z,11.50
2022-09-28T16:28:34.581Z,11.40
2022-09-28T16:31:06.358Z,11.40
2022-09-28T16:33:44.080Z,11.30
2022-09-28T16:36:16.775Z,11.20
2022-09-28T16:38:48.321Z,11.10
2022-09-28T16:41:20.289Z,11.00
2022-09-28T16:43:48.808Z,10.90
2022-09-28T16:46:17.912Z,10.90
2022-09-28T16:48:51.357Z,10.80
2022-09-28T16:51:23.036Z,10.80
2022-09-28T16:54:08.626Z,10.70
2022-09-28T16:56:37.186Z,10.70
2022-09-28T16:59:04.817Z,10.70
2022-09-28T17:01:32.139Z,10.60
2022-09-28T17:03:59.423Z,10.60
2022-09-28T17:06:27.616Z,10.60
2022-09-28T17:08:56.795Z,10.60
2022-09-28T17:11:26.502Z,10.60
2022-09-28T17:13:59.036Z,10.60
2022-09-28T17:17:02.651Z,10.60
2022-09-28T17:19:23.620Z,10.60
2022-09-28T17:21:52.807Z,10.60
2022-09-28T17:24:21.025Z,10.60
2022-09-28T17:26:51.256Z,10.70
2022-09-28T17:29:20.065Z,10.70
2022-09-28T17:31:48.137Z,10.70
2022-09-28T17:34:16.736Z,10.70
2022-09-28T17:36:44.954Z,10.70
2022-09-28T17:39:14.073Z,10.60
2022-09-28T17:41:43.945Z,10.50
2022-09-28T17:44:15.339Z,10.40
2022-09-28T17:46:49.281Z,10.30
2022-09-28T17:49:17.164Z,10.20
2022-09-28T17:51:44.600Z,10.20
2022-09-28T17:54:13.732Z,10.10
2022-09-28T17:56:42.510Z,10.10
2022-09-28T17:59:14.592Z,10.10
2022-09-28T18:01:42.316Z,10.00
2022-09-28T18:04:22.948Z,9.90
2022-09-28T18:06:55.121Z,9.90
2022-09-28T18:09:25.426Z,9.90
2022-09-28T18:12:00.594Z,9.90
2022-09-28T18:14:28.651Z,9.90
2022-09-28T18:16:56.065Z,10.00
2022-09-28T18:19:23.372Z,10.00
2022-09-28T18:21:50.548Z,10.00
2022-09-28T18:24:18.055Z,10.00
2022-09-28T18:26:45.450Z,10.00
2022-09-28T18:29:12.694Z,10.00
2022-09-28T18:31:39.925Z,10.00
2022-09-28T18:34:07.083Z,9.90
2022-09-28T18:36:35.919Z,9.90
2022-09-28T18:39:03.690Z,9.90
2022-09-28T18:41:30.900Z,9.90
2022-09-28T18:44:00.946Z,9.90
2022-09-28T18:46:30.437Z,9.80
2022-09-28T18:48:57.732Z,9.80
2022-09-28T18:51:24.985Z,9.70
2022-09-28T18:53:52.479Z,9.70
2022-09-28T18:56:21.141Z,9.60
2022-09-28T18:58:51.741Z,9.60
2022-09-28T19:01:36.258Z,9.50
2022-09-28T19:04:07.175Z,9.40
2022-09-28T19:06:37.214Z,9.40
2022-09-28T19:09:04.765Z,9.40
2022-09-28T19:11:32.590Z,9.40
2022-09-28T19:13:59.855Z,9.30
2022-09-28T19:16:31.206Z,9.30
2022-09-28T19:19:02.853Z,9.30
2022-09-28T19:21:30.772Z,9.30
2022-09-28T19:24:01.138Z,9.20
2022-09-28T19:26:29.174Z,9.20
2022-09-28T19:28:57.975Z,9.20
2022-09-28T19:31:26.691Z,9.10
2022-09-28T19:33:54.037Z,9.10
2022-09-28T19:36:24.153Z,9.10
2022-09-28T19:38:53.132Z,9.00
2022-09-28T19:41:44.920Z,9.00
2022-09-28T19:44:25.866Z,9.00
2022-09-28T19:46:58.750Z,8.90
2022-09-28T19:49:27.970Z,8.80
2022-09-28T19:52:12.001Z,8.80
2022-09-28T19:54:39.773Z,8.70
2022-09-28T19:57:09.752Z,8.70
2022-09-28T19:59:38.208Z,8.70
2022-09-28T20:02:06.972Z,8.60
2022-09-28T20:04:34.299Z,8.60
2022-09-28T20:07:02.106Z,8.60
2022-09-28T20:09:29.684Z,8.60
2022-09-28T20:11:57.367Z,8.60
2022-09-28T20:14:26.491Z,8.60
2022-09-28T20:16:58.308Z,8.60
2022-09-28T20:19:26.316Z,8.60
2022-09-28T20:21:54.064Z,8.60
2022-09-28T20:24:21.241Z,8.50
2022-09-28T20:26:49.700Z,8.50
2022-09-28T20:29:17.540Z,8.50
2022-09-28T20:31:45.784Z,8.40
2022-09-28T20:34:13.353Z,8.30
2022-09-28T20:36:43.712Z,8.30
2022-09-28T20:39:11.253Z,8.30
2022-09-28T20:41:38.552Z,8.30
2022-09-28T20:44:06.859Z,8.30
2022-09-28T20:46:35.435Z,8.30
2022-09-28T20:49:03.504Z,8.20
2022-09-28T20:51:31.377Z,8.20
2022-09-28T20:53:59.374Z,8.20
2022-09-28T20:56:29.120Z,8.20
2022-09-28T20:58:56.991Z,8.10
2022-09-28T21:01:30.117Z,8.10
2022-09-28T21:03:59.877Z,8.00
2022-09-28T21:06:30.177Z,8.00
2022-09-28T21:08:58.027Z,8.00
2022-09-28T21:11:27.587Z,8.00
2022-09-28T21:13:58.220Z,8.00
2022-09-28T21:16:26.871Z,8.00
2022-09-28T21:18:54.336Z,7.90
2022-09-28T21:21:22.657Z,7.90
2022-09-28T21:23:57.516Z,7.80
2022-09-28T21:26:27.783Z,7.80
2022-09-28T21:29:02.012Z,7.80
2022-09-28T21:31:32.779Z,7.80
2022-09-28T21:34:00.848Z,7.80
2022-09-28T21:36:28.088Z,7.70
2022-09-28T21:38:56.393Z,7.80
2022-09-28T21:41:25.039Z,7.80
2022-09-28T21:43:52.352Z,7.70
2022-09-28T21:46:19.747Z,7.70
2022-09-28T21:48:50.556Z,7.60
2022-09-28T21:51:17.765Z,7.60
2022-09-28T21:53:45.158Z,7.50
2022-09-28T21:56:13.162Z,7.40
2022-09-28T21:58:40.475Z,7.40
2022-09-28T22:01:14.855Z,7.40
2022-09-28T22:03:44.140Z,7.40
2022-09-28T22:06:11.726Z,7.30
2022-09-28T22:08:39.299Z,7.30
2022-09-28T22:11:09.352Z,7.30
2022-09-28T22:13:44.977Z,7.20
2022-09-28T22:16:13.978Z,7.20
2022-09-28T22:18:41.739Z,7.20
2022-09-28T22:21:13.517Z,7.20
2022-09-28T22:23:41.390Z,7.20
2022-09-28T22:26:19.096Z,7.20
2022-09-28T22:28:52.575Z,7.10
2022-09-28T22:31:22.726Z,7.10
2022-09-28T22:33:50.131Z,7.10
2022-09-28T22:36:18.023Z,7.10
2022-09-28T22:38:46.004Z,7.00
2022-09-28T22:41:16.054Z,7.00
2022-09-28T22:43:43.709Z,7.00
2022-09-28T22:46:14.046Z,7.00
2022-09-28T22:48:44.510Z,7.00
2022-09-28T22:51:12.316Z,7.00
2022-09-28T22:53:39.585Z,7.10
2022-09-28T22:56:07.496Z,7.10
2022-09-28T22:58:35.692Z,7.10
2022-09-28T23:01:11.585Z,7.20
2022-09-28T23:03:40.806Z,7.20
2022-09-28T23:06:09.721Z,7.30
2022-09-28T23:08:37.301Z,7.30
2022-09-28T23:11:05.801Z,7.30
2022-09-28T23:13:33.880Z,7.40
2022-09-28T23:16:03.762Z,7.40
2022-09-28T23:18:33.951Z,7.40
2022-09-28T23:21:04.016Z,7.40
2022-09-28T23:23:32.101Z,7.40
2022-09-28T23:26:00.287Z,7.50
2022-09-28T23:28:28.246Z,7.50
2022-09-28T23:30:55.520Z,7.40
2022-09-28T23:33:22.950Z,7.40
2022-09-28T23:35:50.317Z,7.40
2022-09-28T23:38:18.586Z,7.40
2022-09-28T23:40:47.401Z,7.40
2022-09-28T23:43:15.594Z,7.30
2022-09-28T23:45:44.138Z,7.30
2022-09-28T23:48:12.873Z,7.30
2022-09-28T23:50:40.086Z,7.20
2022-09-28T23:53:07.478Z,7.20
2022-09-28T23:55:34.701Z,7.20
2022-09-28T23:58:01.957Z,7.20
